Time;durP1;ratioP1;P1;durP2;ratioP2;P2;SDS_P1;SDS_P2;PMS_P1;PMS_P2;Temp;Humidity;BMP_temperature;BMP_pressure;BME280_temperature;BME280_humidity;BME280_pressure;Samples;Min_cycle;Max_cycle;Signal;HPM_P1;HPM_P2
2023/12/17 09:39:31;;;;;;;21.63;15.97;;;;;;;7.06;100.00;103613.22;5293509;27;20364;-77
2023/12/17 09:42:03;;;;;;;21.20;14.60;;;;;;;7.33;100.00;103632.31;5287037;28;20103;-74
2023/12/17 09:44:34;;;;;;;22.07;15.70;;;;;;;7.37;100.00;103635.78;5276497;28;20478;-74
2023/12/17 09:47:06;;;;;;;19.87;14.83;;;;;;;7.14;100.00;103627.13;5277136;28;20032;-73
2023/12/17 09:49:37;;;;;;;21.57;15.40;;;;;;;7.24;100.00;103633.19;5283698;28;20035;-75
2023/12/17 09:52:12;;;;;;;19.17;15.33;;;;;;;7.22;100.00;103634.97;5288612;28;20036;-72
2023/12/17 09:54:47;;;;;;;21.13;15.57;;;;;;;7.27;100.00;103627.13;5276039;28;20021;-74
2023/12/17 09:57:18;;;;;;;;;;;;;;;7.56;100.00;103638.38;5272684;28;20039;-74
2023/12/17 09:59:49;;;;;;;19.93;15.57;;;;;;;7.38;100.00;103635.78;5274603;28;19916;-75
2023/12/17 10:02:21;;;;;;;20.80;15.07;;;;;;;7.34;100.00;103633.19;5271750;28;20464;-73
2023/12/17 10:04:53;;;;;;;20.77;16.57;;;;;;;7.38;100.00;103630.56;5274883;28;20244;-76
2023/12/17 10:07:25;;;;;;;20.73;16.10;;;;;;;7.32;100.00;103635.81;5279705;28;20032;-73
2023/12/17 10:09:56;;;;;;;23.10;16.00;;;;;;;7.34;100.00;103634.06;5272544;28;20033;-73
2023/12/17 10:12:29;;;;;;;21.57;16.40;;;;;;;7.36;100.00;103634.06;5272521;28;20111;-71
2023/12/17 10:15:01;;;;;;;24.77;17.30;;;;;;;7.35;100.00;103632.31;5270840;28;20052;-70
2023/12/17 10:17:32;;;;;;;24.80;19.30;;;;;;;7.30;100.00;103615.81;5271638;28;20495;-71
2023/12/17 10:20:04;;;;;;;24.37;17.87;;;;;;;7.41;100.00;103634.06;5271877;28;20387;-71
2023/12/17 10:22:35;;;;;;;24.80;18.40;;;;;;;7.38;100.00;103640.16;5276033;28;20034;-72
2023/12/17 10:25:21;;;;;;;27.07;18.80;;;;;;;7.48;100.00;103648.81;5270799;28;20123;-71
2023/12/17 10:27:57;;;;;;;28.43;21.07;;;;;;;7.38;100.00;103642.78;5272844;28;20024;-71
2023/12/17 10:30:31;;;;;;;24.77;19.47;;;;;;;7.36;100.00;103636.69;5290237;28;20030;-72
2023/12/17 10:33:05;;;;;;;27.80;19.95;;;;;;;7.46;100.00;103638.41;5284297;28;20463;-73
2023/12/17 10:35:38;;;;;;;28.70;19.67;;;;;;;7.50;100.00;103623.63;5271568;28;20052;-73
2023/12/17 10:38:10;;;;;;;28.63;20.97;;;;;;;7.50;100.00;103624.47;5270976;28;20028;-73
2023/12/17 10:40:42;;;;;;;33.43;22.30;;;;;;;7.50;100.00;103608.81;5271238;28;20430;-73
2023/12/17 10:43:15;;;;;;;30.80;21.23;;;;;;;7.47;100.00;103608.84;5270847;28;20016;-74
2023/12/17 10:45:47;;;;;;;29.80;20.77;;;;;;;7.53;100.00;103604.47;5268705;28;20498;-75
2023/12/17 10:48:20;;;;;;;31.83;22.13;;;;;;;7.54;100.00;103614.91;5271033;28;20013;-74
2023/12/17 10:50:51;;;;;;;33.60;22.53;;;;;;;7.57;100.00;103601.00;5257897;28;20036;-73
2023/12/17 10:53:23;;;;;;;30.10;21.10;;;;;;;7.57;100.00;103593.19;5255072;28;20017;-72
2023/12/17 10:55:54;;;;;;;34.97;21.97;;;;;;;7.63;100.00;103588.81;5257529;28;20061;-74
2023/12/17 10:58:26;;;;;;;28.93;21.43;;;;;;;7.66;100.00;103590.56;5244337;28;20486;-74
2023/12/17 11:00:58;;;;;;;29.73;20.57;;;;;;;7.72;100.00;103571.38;5246929;28;20037;-74
2023/12/17 11:03:30;;;;;;;37.20;24.00;;;;;;;7.92;100.00;103589.59;5250281;28;20040;-71
2023/12/17 11:06:04;;;;;;;26.87;18.10;;;;;;;7.95;100.00;103575.63;5242962;28;20033;-72
2023/12/17 11:08:36;;;;;;;27.77;19.00;;;;;;;8.10;100.00;103577.31;5253907;28;20036;-70
2023/12/17 11:11:07;;;;;;;29.17;18.73;;;;;;;8.11;100.00;103573.84;5256357;28;20027;-70
2023/12/17 11:13:39;;;;;;;30.60;20.17;;;;;;;8.20;100.00;103573.75;5263716;28;20028;-72
2023/12/17 11:16:21;;;;;;;33.57;18.60;;;;;;;8.26;100.00;103561.53;5253575;28;20025;-70
2023/12/17 11:18:53;;;;;;;30.30;17.93;;;;;;;8.21;100.00;103558.97;5242480;28;20136;-70
2023/12/17 11:21:27;;;;;;;28.83;17.50;;;;;;;8.27;100.00;103558.09;5257092;28;20548;-70
2023/12/17 11:23:59;;;;;;;29.57;18.00;;;;;;;8.27;100.00;103555.47;5259008;28;20029;-71
2023/12/17 11:26:41;;;;;;;24.47;19.20;;;;;;;8.38;100.00;103552.78;5254123;28;20112;-69
2023/12/17 11:29:31;;;;;;;26.63;17.93;;;;;;;8.39;100.00;103537.13;5254256;28;20025;-70
2023/12/17 11:32:04;;;;;;;33.17;18.43;;;;;;;8.41;100.00;103551.00;5257057;28;20403;-69
2023/12/17 11:34:36;;;;;;;27.00;18.30;;;;;;;8.45;100.00;103549.25;5249035;28;20032;-71
2023/12/17 11:37:08;;;;;;;31.80;18.63;;;;;;;8.35;100.00;103532.78;5256050;28;20024;-73
2023/12/17 11:39:40;;;;;;;31.83;19.27;;;;;;;8.38;100.00;103532.75;5255001;28;20028;-72
2023/12/17 11:42:16;;;;;;;30.70;19.33;;;;;;;8.47;100.00;103535.31;5256512;28;20025;-72
2023/12/17 11:44:50;;;;;;;32.40;20.20;;;;;;;8.46;100.00;103536.19;5258874;28;20681;-72
2023/12/17 11:47:28;;;;;;;28.53;18.67;;;;;;;8.54;100.00;103519.56;5252363;28;20033;-71
2023/12/17 11:50:00;;;;;;;32.43;18.97;;;;;;;8.56;100.00;103523.06;5259249;28;20487;-72
2023/12/17 11:52:32;;;;;;;26.23;17.93;;;;;;;8.56;100.00;103512.63;5260694;28;20059;-71
2023/12/17 11:55:03;;;;;;;34.60;19.03;;;;;;;8.56;100.00;103512.63;5260665;28;20025;-71
2023/12/17 11:57:34;;;;;;;30.47;16.43;;;;;;;8.56;100.00;103508.28;5250733;28;20037;-71
2023/12/17 12:00:12;;;;;;;27.53;15.03;;;;;;;8.67;100.00;103499.47;5254853;28;20025;-73
2023/12/17 12:02:43;;;;;;;33.87;16.20;;;;;;;8.52;100.00;103490.00;5254068;28;20033;-72
2023/12/17 12:05:18;;;;;;;34.87;16.70;;;;;;;8.61;100.00;103500.41;5254853;28;20083;-73
2023/12/17 12:07:53;;;;;;;;;;;;;;;8.74;100.00;103501.16;5252934;28;20071;-71
2023/12/17 12:10:24;;;;;;;25.70;12.48;;;;;;;8.62;100.00;103499.53;5255591;28;19936;-72
2023/12/17 12:13:03;;;;;;;29.07;12.93;;;;;;;8.57;100.00;103480.41;5254371;28;20033;-71
2023/12/17 12:15:34;;;;;;;23.87;12.37;;;;;;;8.41;100.00;103472.66;5254385;28;20080;-72
2023/12/17 12:18:19;;;;;;;28.77;14.10;;;;;;;8.53;100.00;103483.91;5254652;28;20060;-72
2023/12/17 12:20:50;;;;;;;26.98;13.70;;;;;;;8.39;100.00;103471.81;5253981;28;20476;-71
2023/12/17 12:23:22;;;;;;;28.40;13.93;;;;;;;8.43;100.00;103475.28;5250796;28;20036;-72
2023/12/17 12:26:00;;;;;;;29.17;14.00;;;;;;;8.50;100.00;103465.66;5257009;28;20019;-72
2023/12/17 12:28:31;;;;;;;25.60;11.33;;;;;;;8.55;100.00;103469.09;5268115;28;20047;-72
2023/12/17 12:31:09;;;;;;;26.47;12.17;;;;;;;8.57;100.00;103467.38;5251368;28;20036;-71
2023/12/17 12:33:40;;;;;;;23.43;12.60;;;;;;;8.36;100.00;103453.53;5254590;28;20025;-71
2023/12/17 12:36:13;;;;;;;27.10;11.13;;;;;;;8.49;100.00;103454.31;5254547;28;20029;-71
2023/12/17 12:38:45;;;;;;;25.07;10.37;;;;;;;8.47;100.00;103456.06;5252636;28;20053;-71
2023/12/17 12:41:16;;;;;;;29.03;10.50;;;;;;;8.53;100.00;103450.81;5254978;28;20029;-72
2023/12/17 12:43:51;;;;;;;25.77;10.40;;;;;;;8.53;100.00;103450.81;5254884;28;20047;-72
2023/12/17 12:46:23;;;;;;;26.37;9.53;;;;;;;8.56;100.00;103442.09;5254594;28;20031;-72
2023/12/17 12:48:55;;;;;;;20.93;10.07;;;;;;;8.61;100.00;103432.47;5255573;28;20024;-72
2023/12/17 12:51:27;;;;;;;31.00;11.23;;;;;;;8.57;100.00;103425.56;5254051;28;20404;-71
2023/12/17 12:53:58;;;;;;;23.63;10.37;;;;;;;8.59;100.00;103423.78;5255424;28;20020;-71
2023/12/17 12:56:29;;;;;;;27.07;9.67;;;;;;;8.62;100.00;103413.31;5255079;28;20028;-71
2023/12/17 12:59:00;;;;;;;19.53;9.33;;;;;;;8.61;100.00;103406.34;5255045;28;20119;-71
2023/12/17 13:01:32;;;;;;;19.33;9.23;;;;;;;8.74;100.00;103401.00;5254075;28;20029;-70
2023/12/17 13:04:03;;;;;;;27.93;10.83;;;;;;;8.67;100.00;103389.75;5254666;28;20567;-70
2023/12/17 13:06:34;;;;;;;23.13;9.97;;;;;;;8.73;100.00;103384.44;5253166;28;20492;-70
2023/12/17 13:09:07;;;;;;;21.00;10.33;;;;;;;8.74;100.00;103385.31;5252618;28;20064;-71
2023/12/17 13:11:39;;;;;;;22.30;10.90;;;;;;;8.74;100.00;103382.72;5250976;28;20063;-72
2023/12/17 13:14:10;;;;;;;24.90;8.47;;;;;;;8.79;100.00;103386.13;5253807;28;20064;-71
2023/12/17 13:16:42;;;;;;;24.30;8.87;;;;;;;8.75;100.00;103384.44;5254585;28;20071;-72
2023/12/17 13:19:13;;;;;;;17.80;8.00;;;;;;;8.71;100.00;103376.63;5253556;28;20037;-73
2023/12/17 13:21:44;;;;;;;21.67;9.33;;;;;;;8.67;100.00;103384.53;5267796;28;20063;-72
2023/12/17 13:24:15;;;;;;;21.67;8.63;;;;;;;8.68;100.00;103387.13;5265583;28;20543;-72
2023/12/17 13:26:47;;;;;;;24.13;8.77;;;;;;;8.69;100.00;103378.38;5231553;28;20124;-72
2023/12/17 13:29:18;;;;;;;27.63;8.10;;;;;;;8.71;100.00;103374.03;5255520;28;20098;-72
2023/12/17 13:31:49;;;;;;;21.17;7.50;;;;;;;8.66;100.00;103367.97;5257015;28;20492;-72
2023/12/17 13:34:22;;;;;;;20.67;7.83;;;;;;;8.69;100.00;103354.88;5248626;28;20032;-73
2023/12/17 13:36:53;;;;;;;17.47;7.83;;;;;;;8.65;100.00;103365.38;5254425;28;20067;-73
2023/12/17 13:39:24;;;;;;;24.93;8.47;;;;;;;8.66;100.00;103365.38;5253778;28;20253;-73
2023/12/17 13:41:56;;;;;;;26.30;8.17;;;;;;;8.73;100.00;103360.09;5252794;28;20037;-71
2023/12/17 13:44:28;;;;;;;22.27;7.10;;;;;;;8.74;100.00;103360.06;5247589;28;20024;-74
2023/12/17 13:46:59;;;;;;;20.20;7.40;;;;;;;8.51;100.00;103323.72;5255366;28;20025;-80
2023/12/17 13:49:35;;;;;;;21.37;6.53;;;;;;;8.69;100.00;103352.25;5250401;28;20020;-78
2023/12/17 13:52:07;;;;;;;27.70;7.73;;;;;;;8.53;100.00;103337.63;5261569;28;20079;-82
2023/12/17 13:54:39;;;;;;;19.40;6.83;;;;;;;8.65;100.00;103353.19;5260370;28;20021;-76
2023/12/17 13:57:10;;;;;;;25.03;8.40;;;;;;;8.64;100.00;103354.06;5248579;28;20479;-78
2023/12/17 13:59:42;;;;;;;18.87;7.40;;;;;;;8.52;100.00;103346.34;5250814;28;20029;-82
2023/12/17 14:02:14;;;;;;;20.50;7.67;;;;;;;8.54;100.00;103348.06;5255132;28;20499;-86
2023/12/17 14:04:45;;;;;;;18.57;6.60;;;;;;;8.61;100.00;103338.44;5254804;28;20045;-76
2023/12/17 14:07:19;;;;;;;19.60;8.53;;;;;;;8.63;100.00;103336.66;5253622;28;20493;-74
2023/12/17 14:09:50;;;;;;;19.27;6.33;;;;;;;8.52;100.00;103334.13;5254078;28;20044;-72
2023/12/17 14:12:21;;;;;;;18.17;6.43;;;;;;;8.58;100.00;103335.84;5253912;28;20020;-76
2023/12/17 14:14:52;;;;;;;18.20;7.00;;;;;;;8.57;100.00;103336.75;5255590;28;20078;-79
2023/12/17 14:17:24;;;;;;;16.07;5.83;;;;;;;8.44;100.00;103315.94;5253943;28;20044;-76
2023/12/17 14:19:55;;;;;;;16.30;6.43;;;;;;;8.59;100.00;103334.97;5254203;28;20511;-81
2023/12/17 14:22:27;;;;;;;15.80;5.20;;;;;;;8.48;100.00;103333.31;5254530;28;20021;-77
2023/12/17 14:24:58;;;;;;;19.20;6.03;;;;;;;8.51;100.00;103336.75;5255377;28;20032;-79
2023/12/17 14:27:30;;;;;;;20.40;6.37;;;;;;;8.49;100.00;103328.94;5258171;28;20029;-82
2023/12/17 14:30:02;;;;;;;17.27;6.97;;;;;;;8.57;100.00;103315.84;5257199;28;20103;-73
2023/12/17 14:32:34;;;;;;;16.50;6.40;;;;;;;8.55;100.00;103307.13;5258379;28;20400;-77
2023/12/17 14:35:08;;;;;;;17.70;6.83;;;;;;;8.47;100.00;103309.81;5258128;28;20032;-77
2023/12/17 14:37:39;;;;;;;19.38;6.57;;;;;;;8.48;100.00;103309.78;5257356;28;20079;-82
2023/12/17 14:40:11;;;;;;;15.20;5.70;;;;;;;8.32;100.00;103282.13;5258491;28;20052;-79
2023/12/17 14:42:42;;;;;;;15.27;5.70;;;;;;;8.44;100.00;103308.13;5262362;28;20029;-79
2023/12/17 14:45:14;;;;;;;23.03;6.47;;;;;;;8.40;100.00;103310.75;5265596;28;20033;-78
2023/12/17 14:47:45;;;;;;;18.10;6.20;;;;;;;8.35;100.00;103308.22;5259670;28;20024;-79
2023/12/17 14:50:16;;;;;;;17.00;6.00;;;;;;;8.38;100.00;103321.22;5257574;28;20025;-83
2023/12/17 14:52:48;;;;;;;14.47;6.53;;;;;;;8.29;100.00;103316.13;5253158;28;20036;-74
2023/12/17 14:55:20;;;;;;;17.47;5.47;;;;;;;8.36;100.00;103309.91;5254931;28;20070;-73
2023/12/17 14:57:51;;;;;;;16.57;5.93;;;;;;;8.27;100.00;103304.81;5257121;28;20024;-75
2023/12/17 15:00:22;;;;;;;17.03;6.07;;;;;;;8.16;100.00;103300.56;5256026;28;20037;-73
2023/12/17 15:02:53;;;;;;;16.60;7.70;;;;;;;8.26;100.00;103311.78;5176662;28;20098;-73
2023/12/17 15:05:25;;;;;;;15.57;7.33;;;;;;;8.13;100.00;103308.44;5234809;28;20072;-72
2023/12/17 15:07:56;;;;;;;19.83;6.53;;;;;;;8.14;100.00;103306.66;5250840;28;20112;-73
2023/12/17 15:10:30;;;;;;;23.47;5.77;;;;;;;8.13;100.00;103304.94;5249398;28;20043;-73
2023/12/17 15:13:01;;;;;;;15.68;6.60;;;;;;;8.17;100.00;103297.06;5249256;28;20153;-73
2023/12/17 15:15:33;;;;;;;15.73;6.30;;;;;;;8.27;100.00;103299.59;5249480;28;20645;-75
2023/12/17 15:18:05;;;;;;;24.67;8.27;;;;;;;8.14;100.00;103302.31;5251368;28;20395;-72
2023/12/17 15:20:37;;;;;;;16.47;7.07;;;;;;;8.06;100.00;103298.94;5254952;28;20082;-72
2023/12/17 15:23:10;;;;;;;17.07;6.83;;;;;;;8.01;100.00;103290.28;5247868;28;20025;-72
2023/12/17 15:25:41;;;;;;;18.03;6.50;;;;;;;7.96;100.00;103287.69;5249114;28;20033;-70
2023/12/17 15:28:13;;;;;;;18.97;8.00;;;;;;;8.08;100.00;103292.81;5247734;28;20079;-70
2023/12/17 15:30:44;;;;;;;18.03;8.17;;;;;;;8.06;100.00;103283.28;5246721;28;20025;-70
2023/12/17 15:33:15;;;;;;;20.67;7.33;;;;;;;8.07;100.00;103287.59;5246198;28;20054;-70
2023/12/17 15:35:47;;;;;;;14.23;7.43;;;;;;;8.00;100.00;103284.19;5247835;28;20032;-69
2023/12/17 15:38:18;;;;;;;16.37;7.30;;;;;;;7.96;100.00;103275.50;5248190;28;20056;-69
2023/12/17 15:40:50;;;;;;;24.47;7.53;;;;;;;7.88;100.00;103274.72;5249027;28;20037;-68
2023/12/17 15:43:21;;;;;;;15.50;7.50;;;;;;;7.91;100.00;103271.22;5254700;28;20052;-68
2023/12/17 15:45:53;;;;;;;20.50;6.93;;;;;;;7.91;100.00;103273.81;5249117;28;20055;-70
2023/12/17 15:48:24;;;;;;;16.57;6.50;;;;;;;7.87;100.00;103283.44;5249633;28;20037;-71
2023/12/17 15:50:57;;;;;;;17.40;6.97;;;;;;;7.88;100.00;103285.16;5248824;28;20032;-69
2023/12/17 15:53:28;;;;;;;17.30;7.80;;;;;;;7.83;100.00;103272.19;5247330;28;20028;-70
2023/12/17 15:56:00;;;;;;;13.47;7.10;;;;;;;7.82;100.00;103280.88;5248701;28;20084;-70
2023/12/17 15:58:31;;;;;;;17.37;8.07;;;;;;;7.79;100.00;103269.59;5247094;28;20041;-71
2023/12/17 16:01:02;;;;;;;14.20;7.70;;;;;;;7.78;100.00;103267.88;5246137;28;20036;-71
2023/12/17 16:03:34;;;;;;;18.17;8.77;;;;;;;7.82;100.00;103278.25;5244444;28;20040;-70
2023/12/17 16:06:08;;;;;;;13.73;7.30;;;;;;;7.81;100.00;103275.66;5245300;28;20611;-69
2023/12/17 16:08:40;;;;;;;14.47;6.73;;;;;;;7.71;100.00;103270.53;5247588;28;20079;-71
2023/12/17 16:11:11;;;;;;;20.73;7.80;;;;;;;7.66;100.00;103274.94;5247492;28;20025;-69
2023/12/17 16:13:43;;;;;;;15.60;6.93;;;;;;;7.67;100.00;103281.00;5246007;28;20746;-69
2023/12/17 16:16:24;;;;;;;13.80;6.90;;;;;;;7.76;100.00;103283.53;5245905;28;20033;-69
2023/12/17 16:18:55;;;;;;;15.87;6.63;;;;;;;7.68;100.00;103293.19;5247968;28;20036;-70
2023/12/17 16:21:26;;;;;;;19.03;7.50;;;;;;;7.64;100.00;103289.72;5247593;28;20435;-71
2023/12/17 16:23:59;;;;;;;19.13;6.90;;;;;;;7.50;100.00;103285.44;5251334;28;20472;-69
2023/12/17 16:26:30;;;;;;;15.43;7.30;;;;;;;7.58;100.00;103292.34;5248572;28;20048;-68
2023/12/17 16:29:01;;;;;;;16.47;7.50;;;;;;;7.59;100.00;103304.53;5247389;28;20041;-69
2023/12/17 16:31:33;;;;;;;16.53;6.40;;;;;;;7.56;100.00;103294.97;5246405;28;20085;-69
2023/12/17 16:34:04;;;;;;;15.20;6.83;;;;;;;7.49;100.00;103288.94;5244944;28;21359;-69
2023/12/17 16:36:42;;;;;;;21.27;7.93;;;;;;;7.55;100.00;103287.19;5249494;28;20624;-71
2023/12/17 16:39:13;;;;;;;19.47;6.90;;;;;;;7.45;100.00;103289.00;5246903;28;20116;-70
2023/12/17 16:41:45;;;;;;;15.07;6.20;;;;;;;7.47;100.00;103288.09;5246463;28;20037;-70
2023/12/17 16:44:16;;;;;;;13.43;6.67;;;;;;;7.47;100.00;103290.69;5242055;28;20562;-68
2023/12/17 16:46:47;;;;;;;15.53;6.97;;;;;;;7.44;100.00;103282.03;5248798;28;20057;-69
2023/12/17 16:49:19;;;;;;;17.60;7.10;;;;;;;7.38;100.00;103275.13;5241701;28;20060;-71
2023/12/17 16:51:50;;;;;;;14.47;6.80;;;;;;;7.34;100.00;103281.25;5244564;28;20053;-72
2023/12/17 16:54:21;;;;;;;19.23;6.27;;;;;;;7.24;100.00;103291.72;5246921;28;20468;-70
2023/12/17 16:56:53;;;;;;;17.20;7.10;;;;;;;7.10;100.00;103267.50;5248681;28;20024;-70
2023/12/17 16:59:24;;;;;;;18.70;7.57;;;;;;;7.05;100.00;103283.13;5246170;28;20506;-70
2023/12/17 17:02:00;;;;;;;16.40;6.47;;;;;;;6.92;100.00;103287.56;5246730;28;20132;-70
2023/12/17 17:04:31;;;;;;;12.93;7.33;;;;;;;6.82;100.00;103284.13;5245869;28;20083;-70
2023/12/17 17:07:03;;;;;;;17.23;7.03;;;;;;;6.96;100.00;103289.28;5243227;28;20029;-71
2023/12/17 17:09:36;;;;;;;15.97;7.50;;;;;;;6.89;100.00;103287.59;5246604;28;20082;-71
2023/12/17 17:12:07;;;;;;;14.20;6.80;;;;;;;6.75;100.00;103275.50;5247772;28;20079;-72
2023/12/17 17:14:40;;;;;;;19.57;7.73;;;;;;;6.93;100.00;103286.66;5248208;28;20125;-71
2023/12/17 17:17:14;;;;;;;17.23;7.23;;;;;;;6.85;100.00;103289.34;5246997;28;20082;-70
2023/12/17 17:19:45;;;;;;;17.88;7.30;;;;;;;6.75;100.00;103285.03;5249997;28;20028;-70
2023/12/17 17:22:17;;;;;;;16.70;7.53;;;;;;;6.92;100.00;103287.56;5246771;28;20020;-71
2023/12/17 17:24:48;;;;;;;15.00;6.87;;;;;;;6.84;100.00;103278.91;5253124;28;20021;-71
2023/12/17 17:27:19;;;;;;;21.83;7.77;;;;;;;6.78;100.00;103279.81;5249031;28;20036;-71
2023/12/17 17:29:51;;;;;;;15.43;7.07;;;;;;;6.84;100.00;103286.75;5247888;28;20025;-70
2023/12/17 17:32:23;;;;;;;18.60;8.33;;;;;;;6.72;100.00;103270.28;5246071;28;20491;-71
2023/12/17 17:34:54;;;;;;;21.10;8.13;;;;;;;6.72;100.00;103265.06;5247273;28;20031;-71
2023/12/17 17:37:26;;;;;;;18.80;8.10;;;;;;;6.76;100.00;103282.41;5247685;28;20618;-70
2023/12/17 17:39:57;;;;;;;13.80;7.53;;;;;;;6.75;100.00;103279.81;5244142;28;20388;-71
2023/12/17 17:42:28;;;;;;;16.13;7.50;;;;;;;6.73;100.00;103282.44;5243271;28;20029;-70
2023/12/17 17:45:00;;;;;;;13.17;6.97;;;;;;;6.71;100.00;103285.91;5242850;28;20099;-70
2023/12/17 17:47:31;;;;;;;19.77;6.93;;;;;;;6.68;100.00;103285.94;5244784;28;20075;-71
2023/12/17 17:50:02;;;;;;;11.80;6.90;;;;;;;6.68;100.00;103273.78;5247132;28;20061;-69
2023/12/17 17:52:34;;;;;;;14.17;7.23;;;;;;;6.74;100.00;103272.88;5245128;28;20035;-70
2023/12/17 17:55:06;;;;;;;16.77;7.00;;;;;;;6.68;100.00;103281.59;5247519;28;20069;-69
2023/12/17 17:57:37;;;;;;;16.93;7.30;;;;;;;6.60;100.00;103265.09;5247693;28;20021;-70
2023/12/17 18:00:09;;;;;;;19.47;6.00;;;;;;;6.58;100.00;103262.50;5249274;28;20387;-70
2023/12/17 18:02:41;;;;;;;15.53;8.17;;;;;;;6.47;100.00;103259.97;5249890;28;20036;-69
2023/12/17 18:05:19;;;;;;;18.47;6.77;;;;;;;6.67;100.00;103271.19;5249965;28;20087;-72
2023/12/17 18:07:51;;;;;;;18.70;7.33;;;;;;;6.60;100.00;103267.72;5248913;28;20029;-70
2023/12/17 18:10:22;;;;;;;15.80;7.20;;;;;;;6.58;100.00;103261.66;5251558;28;20035;-69
2023/12/17 18:12:53;;;;;;;20.10;8.13;;;;;;;6.58;100.00;103257.31;5250729;28;20040;-70
2023/12/17 18:15:26;;;;;;;16.37;7.00;;;;;;;6.53;100.00;103253.84;5249163;28;20082;-70
2023/12/17 18:17:58;;;;;;;15.47;6.10;;;;;;;6.51;100.00;103234.78;5251562;28;20025;-70
2023/12/17 18:20:29;;;;;;;17.73;5.87;;;;;;;6.48;100.00;103240.00;5249900;28;20075;-70
2023/12/17 18:23:01;;;;;;;16.50;7.00;;;;;;;6.32;100.00;103234.84;5251146;28;20021;-70
2023/12/17 18:25:32;;;;;;;19.57;5.30;;;;;;;6.37;100.00;103238.28;5250657;28;20044;-71
2023/12/17 18:28:05;;;;;;;11.17;5.90;;;;;;;6.43;100.00;103247.81;5250625;28;20089;-70
2023/12/17 18:30:36;;;;;;;14.53;5.87;;;;;;;6.36;100.00;103240.91;5246726;28;20545;-70
2023/12/17 18:33:07;;;;;;;19.97;5.47;;;;;;;6.33;100.00;103248.72;5247668;28;20025;-70
2023/12/17 18:35:39;;;;;;;16.67;5.70;;;;;;;6.36;100.00;103241.78;5250101;28;20033;-70
2023/12/17 18:38:10;;;;;;;17.23;5.93;;;;;;;6.36;100.00;103238.31;5250796;28;20068;-71
2023/12/17 18:40:41;;;;;;;13.10;4.90;;;;;;;6.34;100.00;103230.50;5248392;28;20027;-70
2023/12/17 18:43:13;;;;;;;23.87;6.60;;;;;;;6.40;100.00;103227.88;5247329;28;20780;-70
2023/12/17 18:45:44;;;;;;;20.70;6.20;;;;;;;6.35;100.00;103224.44;5251626;28;20060;-71
2023/12/17 18:48:15;;;;;;;15.00;5.83;;;;;;;6.31;100.00;103221.84;5250130;28;20082;-71
2023/12/17 18:50:46;;;;;;;13.47;5.77;;;;;;;6.25;100.00;103210.56;5250257;28;20094;-71
2023/12/17 18:53:18;;;;;;;13.33;4.90;;;;;;;6.23;100.00;103217.50;5250364;28;20025;-71
2023/12/17 18:55:49;;;;;;;12.37;5.20;;;;;;;6.22;100.00;103217.50;5249758;28;20032;-70
2023/12/17 18:58:20;;;;;;;14.73;5.57;;;;;;;6.24;100.00;103216.66;5248815;28;20063;-70
2023/12/17 19:00:52;;;;;;;14.30;4.87;;;;;;;6.21;100.00;103237.50;5249084;28;20037;-69
2023/12/17 19:03:23;;;;;;;12.93;4.53;;;;;;;6.28;100.00;103235.72;5251843;28;20032;-70
2023/12/17 19:05:54;;;;;;;10.93;4.57;;;;;;;6.28;100.00;103238.34;5250502;28;20044;-72
2023/12/17 19:08:26;;;;;;;16.20;4.87;;;;;;;6.24;100.00;103245.28;5249770;28;20127;-73
2023/12/17 19:10:58;;;;;;;15.40;4.73;;;;;;;6.28;100.00;103246.16;5248363;28;20490;-71
2023/12/17 19:13:30;;;;;;;14.77;4.97;;;;;;;6.16;100.00;103244.44;5248224;28;20033;-72
2023/12/17 19:16:02;;;;;;;15.07;5.03;;;;;;;6.19;100.00;103243.56;5250993;28;20037;-72
2023/12/17 19:18:33;;;;;;;16.97;4.90;;;;;;;6.15;100.00;103243.56;5248530;28;20035;-71
2023/12/17 19:21:04;;;;;;;14.67;5.70;;;;;;;6.12;100.00;103242.72;5248157;28;20033;-70
2023/12/17 19:23:36;;;;;;;12.20;4.57;;;;;;;6.13;100.00;103247.03;5246756;28;20423;-71
2023/12/17 19:26:09;;;;;;;16.27;5.63;;;;;;;6.08;100.00;103251.38;5248778;28;21653;-71
2023/12/17 19:28:40;;;;;;;11.50;4.97;;;;;;;6.02;100.00;103258.28;5246818;28;20466;-71
2023/12/17 19:31:12;;;;;;;13.87;4.80;;;;;;;5.98;100.00;103261.78;5247955;28;20028;-71
2023/12/17 19:33:44;;;;;;;13.20;5.23;;;;;;;5.95;100.00;103230.56;5249536;28;20032;-71
2023/12/17 19:36:15;;;;;;;13.27;5.23;;;;;;;5.98;100.00;103237.50;5249298;28;20036;-70
2023/12/17 19:38:46;;;;;;;15.40;5.33;;;;;;;5.97;100.00;103222.78;5249240;28;20060;-69
2023/12/17 19:41:17;;;;;;;12.63;4.47;;;;;;;5.96;100.00;103237.50;5250921;28;20037;-73
2023/12/17 19:43:49;;;;;;;19.77;5.77;;;;;;;5.90;100.00;103240.97;5246483;28;20056;-70
2023/12/17 19:46:20;;;;;;;14.00;5.00;;;;;;;5.93;100.00;103243.56;5248814;28;20037;-72
2023/12/17 19:48:51;;;;;;;11.53;4.53;;;;;;;5.85;100.00;103253.09;5248015;28;20025;-70
2023/12/17 19:51:24;;;;;;;13.87;5.77;;;;;;;5.87;100.00;103264.38;5255605;28;20029;-70
2023/12/17 19:53:56;;;;;;;14.37;6.10;;;;;;;5.88;100.00;103265.25;5249145;28;20060;-71
2023/12/17 19:56:27;;;;;;;13.07;4.47;;;;;;;5.83;100.00;103264.41;5247391;28;20021;-71
2023/12/17 19:58:58;;;;;;;16.10;5.13;;;;;;;5.81;100.00;103254.84;5248373;28;20048;-70
2023/12/17 20:01:30;;;;;;;13.73;5.10;;;;;;;5.80;100.00;103258.31;5247668;28;20039;-70
2023/12/17 20:04:01;;;;;;;17.87;4.83;;;;;;;5.77;100.00;103249.66;5248399;28;20040;-70
2023/12/17 20:06:32;;;;;;;16.93;5.53;;;;;;;5.69;100.00;103260.91;5249431;28;20040;-68
2023/12/17 20:09:03;;;;;;;16.37;6.67;;;;;;;5.66;100.00;103262.66;5246187;28;20044;-68
2023/12/17 20:11:35;;;;;;;13.17;5.67;;;;;;;5.53;100.00;103238.41;5248304;28;20037;-69
2023/12/17 20:14:07;;;;;;;15.70;5.97;;;;;;;5.66;100.00;103260.06;5245445;28;20075;-70
2023/12/17 20:16:38;;;;;;;11.73;5.10;;;;;;;5.64;100.00;103260.06;5245085;28;20504;-69
2023/12/17 20:19:12;;;;;;;18.20;5.67;;;;;;;5.61;100.00;103256.59;5247735;28;20044;-70
2023/12/17 20:21:43;;;;;;;14.47;6.07;;;;;;;5.57;100.00;103250.50;5247177;28;20092;-69
2023/12/17 20:24:14;;;;;;;16.43;6.40;;;;;;;5.56;100.00;103251.41;5252681;28;20429;-70
2023/12/17 20:26:46;;;;;;;15.30;6.77;;;;;;;5.60;100.00;103244.47;5246142;28;20055;-69
2023/12/17 20:29:17;;;;;;;12.33;6.37;;;;;;;5.39;100.00;103235.78;5250574;28;20059;-70
2023/12/17 20:31:48;;;;;;;13.13;5.30;;;;;;;5.45;100.00;103235.78;5249296;28;20587;-70
2023/12/17 20:34:19;;;;;;;13.47;5.87;;;;;;;5.47;100.00;103240.97;5248701;28;20071;-71
2023/12/17 20:36:51;;;;;;;13.97;5.40;;;;;;;5.47;100.00;103246.19;5247959;28;20036;-70
2023/12/17 20:39:22;;;;;;;17.00;6.23;;;;;;;5.41;100.00;103240.13;5246894;28;20051;-71
2023/12/17 20:41:53;;;;;;;14.93;6.53;;;;;;;5.39;100.00;103233.19;5247309;28;20032;-71
2023/12/17 20:44:24;;;;;;;17.47;6.93;;;;;;;5.42;100.00;103231.47;5248249;28;20025;-71
2023/12/17 20:46:56;;;;;;;15.93;6.07;;;;;;;5.42;100.00;103228.00;5254203;28;20059;-73
2023/12/17 20:49:27;;;;;;;18.53;6.80;;;;;;;5.46;100.00;103234.94;5251940;28;20463;-73
2023/12/17 20:52:03;;;;;;;16.03;6.40;;;;;;;5.47;100.00;103228.84;5253610;28;20044;-70
2023/12/17 20:54:34;;;;;;;18.80;6.03;;;;;;;5.47;100.00;103244.44;5253055;28;20025;-72
2023/12/17 20:57:05;;;;;;;17.03;6.60;;;;;;;5.30;100.00;103232.31;5253534;28;20520;-71
2023/12/17 20:59:36;;;;;;;15.27;6.13;;;;;;;5.28;100.00;103226.25;5252868;28;20482;-72
2023/12/17 21:02:08;;;;;;;17.87;6.60;;;;;;;5.25;100.00;103225.38;5254437;28;20045;-73
2023/12/17 21:04:39;;;;;;;15.47;6.17;;;;;;;5.25;100.00;103222.78;5254646;28;20033;-72
2023/12/17 21:07:11;;;;;;;15.60;6.50;;;;;;;5.19;100.00;103231.44;5246787;28;20025;-73
2023/12/17 21:09:42;;;;;;;11.50;6.37;;;;;;;5.06;100.00;103204.56;5254636;28;20533;-71
2023/12/17 21:12:13;;;;;;;16.30;6.73;;;;;;;5.14;100.00;103234.03;5250699;28;20094;-72
2023/12/17 21:14:45;;;;;;;19.23;6.10;;;;;;;5.23;100.00;103220.19;5243181;28;20387;-71